Time;durP1;ratioP1;P1;durP2;ratioP2;P2;SDS_P1;SDS_P2;PMS_P1;PMS_P2;Temp;Humidity;BMP_temperature;BMP_pressure;BME280_temperature;BME280_humidity;BME280_pressure;Samples;Min_cycle;Max_cycle;Signal;HPM_P1;HPM_P2
2022/12/09 00:00:38;;;;;;;15.48;9.98;;;3.60;99.90;;;;;;5052696;28;20686;-46
2022/12/09 00:03:04;;;;;;;19.35;10.20;;;3.60;99.90;;;;;;5052926;28;20688;-47
2022/12/09 00:05:30;;;;;;;14.43;10.52;;;3.60;99.90;;;;;;5052603;28;20532;-45
2022/12/09 00:07:55;;;;;;;19.33;9.23;;;3.60;99.90;;;;;;5052855;28;20518;-45
2022/12/09 00:10:21;;;;;;;17.13;10.00;;;3.50;99.90;;;;;;5052556;28;20249;-46
2022/12/09 00:12:46;;;;;;;18.02;10.20;;;3.40;99.90;;;;;;5052490;28;20170;-46
2022/12/09 00:15:12;;;;;;;15.55;10.20;;;3.50;99.90;;;;;;5052551;28;20173;-46
2022/12/09 00:17:37;;;;;;;24.67;10.52;;;3.50;99.90;;;;;;5052542;28;20299;-46
2022/12/09 00:20:04;;;;;;;21.25;11.38;;;3.60;99.90;;;;;;5052363;28;20159;-50
2022/12/09 00:22:30;;;;;;;16.92;9.82;;;3.60;99.90;;;;;;5052139;28;20233;-46
2022/12/09 00:24:55;;;;;;;20.73;12.68;;;3.60;99.90;;;;;;5052304;28;20618;-45
2022/12/09 00:27:21;;;;;;;20.80;11.52;;;3.60;99.90;;;;;;5052316;28;20171;-46
2022/12/09 00:29:46;;;;;;;22.08;11.85;;;3.70;99.90;;;;;;5052402;28;20209;-46
2022/12/09 00:32:12;;;;;;;20.55;11.52;;;3.80;99.90;;;;;;5052226;28;20177;-46
2022/12/09 00:34:38;;;;;;;36.25;18.35;;;3.70;99.90;;;;;;5052184;28;20174;-46
2022/12/09 00:37:03;;;;;;;23.42;12.38;;;3.80;99.90;;;;;;5052184;28;20217;-45
2022/12/09 00:39:29;;;;;;;23.08;12.95;;;3.70;99.90;;;;;;5052433;28;20295;-46
2022/12/09 00:41:54;;;;;;;25.50;13.90;;;3.70;99.90;;;;;;5051952;28;20210;-48
2022/12/09 00:44:20;;;;;;;30.48;15.50;;;3.70;99.90;;;;;;5052286;28;20166;-48
2022/12/09 00:46:46;;;;;;;29.75;14.60;;;3.70;99.90;;;;;;5051965;28;20508;-50
2022/12/09 00:49:11;;;;;;;23.63;13.48;;;3.70;99.90;;;;;;5051917;28;20165;-48
2022/12/09 00:51:37;;;;;;;19.02;12.25;;;3.70;99.90;;;;;;5051844;28;20167;-46
2022/12/09 00:54:02;;;;;;;21.73;11.48;;;3.70;99.90;;;;;;5051910;28;20170;-52
2022/12/09 00:56:29;;;;;;;16.38;10.55;;;3.80;99.90;;;;;;5052246;28;20163;-53
2022/12/09 00:58:56;;;;;;;22.58;12.10;;;3.80;99.90;;;;;;5051803;28;20203;-53
2022/12/09 01:01:22;;;;;;;19.55;10.48;;;3.80;99.90;;;;;;5051789;28;20219;-50
2022/12/09 01:03:48;;;;;;;21.23;11.07;;;3.80;99.90;;;;;;5051653;28;20174;-53
2022/12/09 01:06:17;;;;;;;20.20;11.23;;;3.80;99.90;;;;;;5051399;28;20567;-54
2022/12/09 01:08:42;;;;;;;16.27;9.27;;;3.80;99.90;;;;;;5051691;28;20175;-51
2022/12/09 01:11:15;;;;;;;17.20;9.90;;;3.80;99.90;;;;;;5051674;28;20242;-47
2022/12/09 01:13:41;;;;;;;16.85;9.73;;;3.80;99.90;;;;;;5051628;28;20165;-46
2022/12/09 01:16:24;;;;;;;16.75;9.65;;;3.80;99.90;;;;;;5051695;28;20170;-47
2022/12/09 01:18:52;;;;;;;16.42;10.57;;;3.70;99.90;;;;;;5051684;28;20592;-46
2022/12/09 01:21:18;;;;;;;18.52;9.70;;;3.80;99.90;;;;;;5051397;28;20634;-46
2022/12/09 01:23:44;;;;;;;19.83;10.00;;;3.60;99.90;;;;;;5051464;28;20202;-46
2022/12/09 01:26:10;;;;;;;14.50;8.90;;;3.60;99.90;;;;;;5051526;28;20657;-47
2022/12/09 01:28:37;;;;;;;14.23;9.15;;;3.60;99.90;;;;;;5051517;28;20174;-46
2022/12/09 01:31:11;;;;;;;17.17;9.70;;;3.60;99.90;;;;;;5051552;28;20174;-46
2022/12/09 01:33:37;;;;;;;15.32;9.60;;;3.60;99.90;;;;;;5051869;28;20182;-45
2022/12/09 01:36:05;;;;;;;21.38;10.00;;;3.70;99.90;;;;;;5055613;28;20635;-45
2022/12/09 01:38:30;;;;;;;26.45;13.93;;;3.70;99.90;;;;;;5056096;28;20177;-46
2022/12/09 01:40:56;;;;;;;20.30;12.38;;;3.70;99.90;;;;;;5055521;28;20257;-46
2022/12/09 01:43:22;;;;;;;14.65;8.88;;;3.70;99.90;;;;;;5055236;28;20544;-45
2022/12/09 01:45:48;;;;;;;18.50;9.75;;;3.70;99.90;;;;;;5055381;28;20188;-45
2022/12/09 01:48:17;;;;;;;17.35;9.40;;;3.70;99.90;;;;;;5055316;28;20229;-49
2022/12/09 01:50:58;;;;;;;14.27;9.88;;;3.70;99.90;;;;;;5055464;28;20166;-47
2022/12/09 01:53:28;;;;;;;18.52;10.55;;;3.70;99.90;;;;;;5055239;28;20159;-49
2022/12/09 01:55:56;;;;;;;13.13;9.20;;;3.70;99.90;;;;;;5055172;28;20167;-46
2022/12/09 01:58:23;;;;;;;19.27;10.25;;;3.70;99.90;;;;;;5055107;28;20749;-46
2022/12/09 02:00:48;;;;;;;17.30;9.45;;;3.60;99.90;;;;;;5054854;28;20219;-48
2022/12/09 02:03:14;;;;;;;18.35;10.02;;;3.60;99.90;;;;;;5055024;28;20214;-51
2022/12/09 02:05:40;;;;;;;16.55;10.52;;;3.70;99.90;;;;;;5054941;28;20166;-46
2022/12/09 02:08:11;;;;;;;20.88;9.82;;;3.70;99.90;;;;;;5054915;28;20258;-50
2022/12/09 02:10:51;;;;;;;15.68;9.90;;;3.70;99.90;;;;;;5054925;28;20159;-52
2022/12/09 02:13:47;;;;;;;16.92;10.52;;;3.70;99.90;;;;;;5054824;28;20215;-49
2022/12/09 02:16:20;;;;;;;13.80;8.85;;;3.70;99.90;;;;;;5044428;28;20514;-50
2022/12/09 02:19:01;;;;;;;21.50;10.35;;;3.80;99.90;;;;;;5054916;28;20517;-47
2022/12/09 02:21:58;;;;;;;19.60;10.52;;;4.40;99.90;;;;;;5055158;28;20189;-49
2022/12/09 02:24:33;;;;;;;15.02;9.30;;;3.70;99.90;;;;;;5054861;28;20174;-48
2022/12/09 02:27:09;;;;;;;17.60;9.45;;;3.70;99.90;;;;;;5055131;28;20555;-49
2022/12/09 02:30:00;;;;;;;15.90;9.15;;;3.60;99.90;;;;;;5053444;28;20170;-51
2022/12/09 02:32:31;;;;;;;15.55;9.20;;;3.70;99.90;;;;;;5054466;28;20173;-48
2022/12/09 02:35:04;;;;;;;17.98;9.23;;;3.70;99.90;;;;;;5054843;28;20167;-51
2022/12/09 02:37:37;;;;;;;13.50;8.85;;;3.70;99.90;;;;;;5054777;28;20225;-49
2022/12/09 02:40:14;;;;;;;12.82;8.43;;;3.70;99.90;;;;;;5054391;28;20201;-49
2022/12/09 02:42:43;;;;;;;14.40;9.20;;;3.70;99.90;;;;;;5054455;28;20280;-45
2022/12/09 02:45:10;;;;;;;15.45;8.70;;;3.70;99.90;;;;;;5053992;28;20194;-48
2022/12/09 02:47:41;;;;;;;15.25;8.30;;;3.60;99.90;;;;;;5054041;28;20228;-45
2022/12/09 02:50:11;;;;;;;12.43;8.20;;;3.60;99.90;;;;;;5054209;28;20171;-45
2022/12/09 02:52:37;;;;;;;11.98;8.00;;;3.60;99.90;;;;;;5054210;28;20162;-45
2022/12/09 02:55:08;;;;;;;13.10;8.50;;;3.50;99.90;;;;;;5054142;28;20194;-45
2022/12/09 02:57:35;;;;;;;12.90;9.02;;;3.50;99.90;;;;;;5054314;28;20228;-45
2022/12/09 03:00:01;;;;;;;13.43;8.95;;;3.50;99.90;;;;;;5054164;28;20206;-46
2022/12/09 03:02:40;;;;;;;11.10;7.95;;;3.50;99.90;;;;;;5054217;28;20217;-45
2022/12/09 03:05:30;;;;;;;13.77;8.70;;;3.50;99.90;;;;;;5053851;28;20497;-45
2022/12/09 03:08:24;;;;;;;13.20;8.98;;;3.50;99.90;;;;;;5053753;28;20571;-46
2022/12/09 03:11:01;;;;;;;14.23;8.18;;;3.60;99.90;;;;;;5053791;28;20205;-45
2022/12/09 03:13:41;;;;;;;12.20;8.48;;;3.60;99.90;;;;;;5054147;28;20170;-45
2022/12/09 03:16:13;;;;;;;14.27;8.80;;;3.60;99.90;;;;;;5053597;28;20167;-45
2022/12/09 03:18:44;;;;;;;12.25;8.52;;;3.60;99.90;;;;;;5053664;28;20167;-46
2022/12/09 03:21:12;;;;;;;15.60;9.30;;;3.60;99.90;;;;;;5053568;28;20179;-45
2022/12/09 03:23:39;;;;;;;15.40;8.65;;;3.60;99.90;;;;;;5053555;28;20178;-45
2022/12/09 03:26:05;;;;;;;13.10;8.70;;;3.60;99.90;;;;;;5053505;28;20254;-45
2022/12/09 03:28:40;;;;;;;14.85;8.30;;;3.60;99.90;;;;;;5053347;28;20258;-45
2022/12/09 03:31:11;;;;;;;11.38;8.50;;;3.60;99.90;;;;;;5053482;28;20170;-45
2022/12/09 03:33:39;;;;;;;12.00;7.68;;;3.50;99.90;;;;;;5053307;28;20221;-46
2022/12/09 03:36:07;;;;;;;16.95;8.20;;;3.50;99.90;;;;;;5053255;28;20246;-46
2022/12/09 03:38:37;;;;;;;12.60;7.72;;;3.50;99.90;;;;;;5053452;28;20182;-45
2022/12/09 03:41:09;;;;;;;11.52;7.57;;;3.40;99.90;;;;;;5053466;28;20166;-46
2022/12/09 03:43:39;;;;;;;12.75;7.75;;;3.40;99.90;;;;;;5053104;28;20666;-45
2022/12/09 03:46:05;;;;;;;11.73;8.20;;;3.40;99.90;;;;;;5053050;28;20186;-45
2022/12/09 03:48:31;;;;;;;15.73;8.80;;;3.40;99.90;;;;;;5053295;28;20638;-45
2022/12/09 03:51:03;;;;;;;21.85;7.90;;;3.30;99.90;;;;;;5053327;28;20558;-45
2022/12/09 03:53:43;;;;;;;13.68;8.32;;;3.30;99.90;;;;;;5053365;28;20159;-45
2022/12/09 03:56:23;;;;;;;13.45;8.23;;;3.30;99.90;;;;;;5052874;28;20566;-45
2022/12/09 03:58:53;;;;;;;13.70;8.73;;;3.30;99.90;;;;;;5053028;28;20170;-47
2022/12/09 04:01:21;;;;;;;14.57;8.13;;;3.30;99.90;;;;;;5052551;28;20266;-45
2022/12/09 04:03:48;;;;;;;12.88;7.70;;;3.20;99.90;;;;;;5052687;28;20207;-46
2022/12/09 04:06:14;;;;;;;12.38;8.32;;;3.10;99.90;;;;;;5052173;28;20179;-45
2022/12/09 04:08:40;;;;;;;12.70;7.88;;;3.00;99.90;;;;;;5052708;28;20697;-46
2022/12/09 04:11:05;;;;;;;13.85;8.40;;;3.10;99.90;;;;;;5051630;28;20204;-45
2022/12/09 04:13:31;;;;;;;18.52;7.88;;;3.10;99.90;;;;;;5052576;28;20167;-44
2022/12/09 04:15:56;;;;;;;13.43;8.50;;;3.10;99.90;;;;;;5052867;28;20171;-45
2022/12/09 04:18:22;;;;;;;14.25;8.98;;;3.10;99.90;;;;;;5052498;28;20155;-45
2022/12/09 04:20:48;;;;;;;12.63;8.93;;;3.20;99.90;;;;;;5051155;28;20224;-45
2022/12/09 04:23:13;;;;;;;11.75;7.93;;;3.20;99.90;;;;;;5052266;28;20662;-45
2022/12/09 04:25:39;;;;;;;13.35;8.30;;;3.20;99.90;;;;;;5052335;28;20185;-44
2022/12/09 04:28:04;;;;;;;13.93;8.65;;;3.20;99.90;;;;;;5052378;28;20174;-45
2022/12/09 04:30:30;;;;;;;12.43;8.25;;;3.20;99.90;;;;;;5052534;28;20242;-45
2022/12/09 04:32:57;;;;;;;12.23;7.90;;;2.60;99.90;;;;;;5052549;28;20531;-46
2022/12/09 04:35:23;;;;;;;13.48;8.20;;;3.20;99.90;;;;;;5052168;28;20241;-47
2022/12/09 04:37:48;;;;;;;11.00;7.75;;;3.30;99.90;;;;;;5052147;28;20710;-45
2022/12/09 04:40:14;;;;;;;13.02;8.18;;;3.20;99.90;;;;;;5052063;28;20178;-48
2022/12/09 04:42:39;;;;;;;13.98;9.18;;;3.20;99.90;;;;;;5051976;28;20269;-48
2022/12/09 04:45:06;;;;;;;13.60;9.23;;;3.30;99.90;;;;;;5051998;28;20535;-45
2022/12/09 04:47:33;;;;;;;13.27;7.95;;;3.30;99.90;;;;;;5051902;28;20167;-47
2022/12/09 04:49:58;;;;;;;12.32;7.82;;;3.20;99.90;;;;;;5051819;28;20186;-49
2022/12/09 04:52:24;;;;;;;14.73;8.25;;;3.30;99.90;;;;;;5051858;28;20167;-47
2022/12/09 04:54:49;;;;;;;14.05;8.15;;;3.30;99.90;;;;;;5051954;28;20170;-47
2022/12/09 04:57:16;;;;;;;13.13;8.43;;;3.20;99.90;;;;;;5051803;28;20162;-46
2022/12/09 04:59:41;;;;;;;12.63;8.48;;;3.30;99.90;;;;;;5051393;28;20163;-49
2022/12/09 05:02:07;;;;;;;13.43;8.80;;;3.30;99.90;;;;;;5051545;28;20292;-47
2022/12/09 05:04:32;;;;;;;12.25;8.23;;;3.40;99.90;;;;;;5051728;28;20190;-48
2022/12/09 05:06:58;;;;;;;13.63;7.53;;;3.40;99.90;;;;;;5052155;28;20181;-47
2022/12/09 05:09:23;;;;;;;12.02;8.00;;;3.40;99.90;;;;;;5051276;28;20167;-45
2022/12/09 05:11:50;;;;;;;10.07;7.82;;;3.40;99.90;;;;;;5051568;28;20680;-45
2022/12/09 05:14:17;;;;;;;13.45;7.95;;;3.40;99.90;;;;;;5051857;28;20254;-45
2022/12/09 05:16:42;;;;;;;15.82;8.35;;;3.40;99.90;;;;;;5051628;28;20171;-46
2022/12/09 05:19:08;;;;;;;12.60;7.53;;;3.50;99.90;;;;;;5051584;28;20189;-45
2022/12/09 05:21:33;;;;;;;10.63;6.97;;;3.40;99.90;;;;;;5051448;28;20194;-45
2022/12/09 05:24:01;;;;;;;11.63;7.93;;;3.40;99.90;;;;;;5050642;28;20176;-46
2022/12/09 05:26:27;;;;;;;13.63;8.43;;;3.40;99.90;;;;;;5051794;28;20560;-45
2022/12/09 05:28:52;;;;;;;12.00;8.68;;;3.40;99.90;;;;;;5051709;28;20202;-45
2022/12/09 05:31:20;;;;;;;13.23;7.53;;;3.40;99.90;;;;;;5051808;28;20159;-46
2022/12/09 05:33:47;;;;;;;11.90;8.20;;;3.40;99.90;;;;;;5051455;28;20638;-50
2022/12/09 05:36:15;;;;;;;12.13;8.20;;;3.40;99.90;;;;;;5051436;28;20163;-48
2022/12/09 05:38:41;;;;;;;11.82;8.00;;;3.40;99.90;;;;;;5051379;28;20236;-51
2022/12/09 05:41:07;;;;;;;15.95;9.32;;;3.30;99.90;;;;;;5051100;28;20614;-46
2022/12/09 05:43:34;;;;;;;25.70;16.20;;;3.40;99.90;;;;;;5051429;28;20574;-52
2022/12/09 05:46:00;;;;;;;31.52;17.65;;;3.30;99.90;;;;;;5051919;28;20220;-54
2022/12/09 05:48:26;;;;;;;37.35;23.35;;;3.40;99.90;;;;;;5051660;28;20167;-50
2022/12/09 05:50:59;;;;;;;33.70;21.23;;;3.40;99.90;;;;;;5051278;28;20170;-47
2022/12/09 05:53:25;;;;;;;21.30;14.18;;;3.40;99.90;;;;;;5051176;28;20524;-47
2022/12/09 05:55:51;;;;;;;23.08;11.20;;;3.40;99.90;;;;;;5051255;28;20170;-47
2022/12/09 05:58:16;;;;;;;15.45;10.07;;;3.40;99.90;;;;;;5051559;28;20528;-51
2022/12/09 06:00:42;;;;;;;16.25;9.73;;;3.40;99.90;;;;;;5051057;28;20289;-50
2022/12/09 06:03:07;;;;;;;13.27;9.65;;;3.50;99.90;;;;;;5051174;28;20206;-47
2022/12/09 06:05:33;;;;;;;12.38;8.70;;;3.40;99.90;;;;;;5051101;28;20166;-49
2022/12/09 06:07:59;;;;;;;15.50;8.80;;;3.40;99.90;;;;;;5051421;28;20205;-47
2022/12/09 06:10:24;;;;;;;13.73;8.85;;;3.50;99.90;;;;;;5051097;28;20178;-45
2022/12/09 06:12:53;;;;;;;14.85;9.80;;;3.40;99.90;;;;;;5051067;28;20181;-49
2022/12/09 06:15:19;;;;;;;15.68;9.30;;;3.50;99.90;;;;;;5051201;28;20178;-48
2022/12/09 06:17:44;;;;;;;13.07;9.13;;;3.40;99.90;;;;;;5051211;28;20250;-47
2022/12/09 06:20:10;;;;;;;13.57;8.45;;;3.50;99.90;;;;;;5051239;28;20217;-48
2022/12/09 06:22:35;;;;;;;14.20;8.52;;;3.30;99.90;;;;;;5052873;28;20297;-48
2022/12/09 06:25:01;;;;;;;11.95;8.00;;;3.40;99.90;;;;;;5054832;28;20174;-45
2022/12/09 06:27:27;;;;;;;11.27;8.10;;;3.40;99.90;;;;;;5054962;28;20251;-45
2022/12/09 06:29:52;;;;;;;14.68;8.38;;;3.30;99.90;;;;;;5054731;28;20641;-45
2022/12/09 06:32:18;;;;;;;11.32;7.68;;;3.30;99.90;;;;;;5054254;28;20159;-45
2022/12/09 06:34:43;;;;;;;13.77;8.32;;;3.20;99.90;;;;;;5054336;28;20486;-45
2022/12/09 06:37:09;;;;;;;16.65;8.40;;;3.20;99.90;;;;;;5054331;28;20177;-45
2022/12/09 06:39:34;;;;;;;13.23;8.70;;;3.20;99.90;;;;;;5054211;28;20170;-45
2022/12/09 06:42:00;;;;;;;11.45;8.20;;;3.10;99.90;;;;;;5054018;28;20198;-49
2022/12/09 06:44:25;;;;;;;14.38;8.70;;;3.20;99.90;;;;;;5053150;28;20174;-48
2022/12/09 06:46:51;;;;;;;17.92;9.00;;;3.20;99.90;;;;;;5054323;28;20505;-45
2022/12/09 06:49:17;;;;;;;11.82;8.40;;;3.10;99.90;;;;;;5054058;28;20650;-45
2022/12/09 06:51:43;;;;;;;12.68;8.38;;;3.10;99.90;;;;;;5052786;28;20224;-45
2022/12/09 06:54:08;;;;;;;15.45;9.02;;;3.10;99.90;;;;;;5054325;28;20173;-50
2022/12/09 06:56:34;;;;;;;15.00;9.07;;;3.10;99.90;;;;;;5054198;28;20591;-48
2022/12/09 06:59:04;;;;;;;16.45;9.80;;;3.10;99.90;;;;;;5053932;28;20688;-45
2022/12/09 07:01:29;;;;;;;13.40;9.45;;;3.10;99.90;;;;;;5053635;28;20214;-46
2022/12/09 07:03:55;;;;;;;14.57;10.40;;;3.10;99.90;;;;;;5054274;28;20225;-48
2022/12/09 07:06:27;;;;;;;13.55;9.00;;;3.00;99.90;;;;;;5053728;28;20171;-45
2022/12/09 07:08:54;;;;;;;14.25;8.95;;;3.00;99.90;;;;;;5053650;28;20175;-47
2022/12/09 07:11:19;;;;;;;17.60;9.95;;;3.10;99.90;;;;;;5053904;28;20170;-45
2022/12/09 07:13:45;;;;;;;22.00;12.00;;;3.10;99.90;;;;;;5053753;28;20163;-45
2022/12/09 07:16:10;;;;;;;31.77;14.05;;;3.10;99.90;;;;;;5053600;28;20216;-45
2022/12/09 07:18:36;;;;;;;20.38;11.90;;;3.00;99.90;;;;;;5053626;28;20167;-46
2022/12/09 07:21:09;;;;;;;23.08;10.98;;;2.90;99.90;;;;;;5053540;28;20163;-48
2022/12/09 07:23:35;;;;;;;17.23;9.60;;;2.90;99.90;;;;;;5052327;28;20666;-45
2022/12/09 07:26:04;;;;;;;15.30;10.85;;;2.90;99.90;;;;;;5053656;28;20619;-45
2022/12/09 07:28:30;;;;;;;18.67;11.15;;;2.90;99.90;;;;;;5053534;28;20254;-45
2022/12/09 07:30:55;;;;;;;18.85;10.15;;;2.90;99.90;;;;;;5052472;28;20636;-45
2022/12/09 07:33:21;;;;;;;14.90;10.30;;;2.90;99.90;;;;;;5052957;28;20166;-45
2022/12/09 07:35:47;;;;;;;17.98;11.85;;;2.90;99.90;;;;;;5053208;28;20169;-45
2022/12/09 07:38:12;;;;;;;17.38;10.82;;;3.00;99.90;;;;;;5053115;28;20166;-48
2022/12/09 07:40:39;;;;;;;18.73;11.07;;;3.00;99.90;;;;;;5053125;28;20198;-46
2022/12/09 07:43:06;;;;;;;15.80;11.07;;;3.00;99.90;;;;;;5053258;28;20265;-45
2022/12/09 07:45:35;;;;;;;14.52;9.85;;;3.00;99.90;;;;;;5052937;28;20627;-47
2022/12/09 07:48:00;;;;;;;15.00;9.32;;;3.10;99.90;;;;;;5053068;28;20181;-45
2022/12/09 07:50:26;;;;;;;15.05;9.63;;;3.10;99.90;;;;;;5053196;28;20622;-45
2022/12/09 07:52:51;;;;;;;16.70;9.23;;;3.00;99.90;;;;;;5052841;28;20678;-46
2022/12/09 07:55:17;;;;;;;21.55;8.65;;;3.00;99.90;;;;;;5052837;28;20166;-45
2022/12/09 07:57:42;;;;;;;13.30;8.73;;;3.10;99.90;;;;;;5052768;28;20257;-48
2022/12/09 08:00:08;;;;;;;19.02;9.43;;;3.10;99.90;;;;;;5052664;28;20234;-45
2022/12/09 08:02:34;;;;;;;17.60;9.35;;;3.10;99.90;;;;;;5052735;28;20218;-45
2022/12/09 08:05:01;;;;;;;11.18;8.25;;;3.10;99.90;;;;;;5052724;28;20218;-46
2022/12/09 08:07:27;;;;;;;14.48;9.13;;;3.20;99.90;;;;;;5053396;28;20231;-46
2022/12/09 08:09:54;;;;;;;20.30;12.68;;;3.20;99.90;;;;;;5052515;28;20254;-45
2022/12/09 08:12:21;;;;;;;14.90;10.18;;;3.30;99.90;;;;;;5052431;28;20175;-48
2022/12/09 08:14:46;;;;;;;17.23;10.30;;;3.30;99.90;;;;;;5052433;28;20288;-45
2022/12/09 08:17:12;;;;;;;15.50;10.70;;;3.40;99.90;;;;;;5052463;28;20184;-45
2022/12/09 08:19:37;;;;;;;15.98;11.07;;;3.40;99.90;;;;;;5052384;28;20538;-45
2022/12/09 08:22:03;;;;;;;16.20;11.00;;;3.40;99.90;;;;;;5052230;28;20202;-45
2022/12/09 08:24:28;;;;;;;19.35;11.57;;;3.50;99.90;;;;;;5052927;28;20179;-45
2022/12/09 08:26:54;;;;;;;30.15;14.13;;;4.20;99.90;;;;;;5052695;28;20574;-45
2022/12/09 08:29:19;;;;;;;20.17;11.38;;;3.60;99.90;;;;;;5052121;28;20198;-46
2022/12/09 08:31:45;;;;;;;16.67;10.70;;;3.60;99.90;;;;;;5052253;28;20175;-45
2022/12/09 08:34:11;;;;;;;18.77;9.77;;;3.70;99.90;;;;;;5052225;28;20213;-45
2022/12/09 08:36:37;;;;;;;19.50;10.07;;;3.80;99.90;;;;;;5052100;28;20170;-45
2022/12/09 08:39:04;;;;;;;17.75;10.48;;;3.90;99.90;;;;;;5052085;28;20258;-45
2022/12/09 08:41:33;;;;;;;14.18;8.52;;;4.00;99.90;;;;;;5052145;28;20181;-45
2022/12/09 08:44:11;;;;;;;15.02;8.50;;;4.00;99.90;;;;;;5051599;28;20187;-45
2022/12/09 08:46:38;;;;;;;12.98;7.97;;;4.00;99.90;;;;;;5051957;28;20618;-45
2022/12/09 08:49:04;;;;;;;12.27;8.10;;;4.10;99.90;;;;;;5051891;28;20170;-45
2022/12/09 08:51:30;;;;;;;11.52;8.27;;;4.10;99.90;;;;;;5052196;28;20170;-48
2022/12/09 08:53:57;;;;;;;20.08;9.05;;;4.20;99.90;;;;;;5052376;28;20197;-47
2022/12/09 08:56:23;;;;;;;12.60;7.35;;;4.20;99.90;;;;;;5051747;28;20177;-47
2022/12/09 08:58:49;;;;;;;10.20;7.22;;;4.20;99.90;;;;;;5051768;28;20186;-50
2022/12/09 09:01:21;;;;;;;12.38;8.02;;;4.30;99.90;;;;;;5051493;28;20214;-50
2022/12/09 09:03:48;;;;;;;12.10;8.07;;;4.40;99.90;;;;;;5051821;28;20313;-46
2022/12/09 09:06:18;;;;;;;12.98;8.35;;;4.40;99.90;;;;;;5051542;28;20506;-48
2022/12/09 09:08:44;;;;;;;12.65;8.13;;;4.40;99.90;;;;;;5051800;28;20166;-48
2022/12/09 09:11:17;;;;;;;14.50;7.85;;;4.40;99.90;;;;;;5051912;28;20630;-48
2022/12/09 09:13:45;;;;;;;14.43;7.68;;;4.40;99.90;;;;;;5051572;28;20311;-45
2022/12/09 09:16:16;;;;;;;14.32;7.47;;;4.30;99.90;;;;;;5051505;28;20181;-50
2022/12/09 09:18:42;;;;;;;12.10;8.38;;;4.30;99.90;;;;;;5051469;28;20163;-48
2022/12/09 09:21:10;;;;;;;11.80;8.18;;;4.30;99.90;;;;;;5051475;28;20272;-49
2022/12/09 09:23:36;;;;;;;10.80;7.22;;;4.40;99.90;;;;;;5050070;28;20224;-47
2022/12/09 09:26:02;;;;;;;11.45;7.65;;;4.30;99.90;;;;;;5051397;28;20249;-46
2022/12/09 09:28:27;;;;;;;14.90;8.25;;;4.30;99.90;;;;;;5052026;28;20194;-51
2022/12/09 09:31:00;;;;;;;26.67;10.63;;;4.30;99.90;;;;;;5051345;28;20162;-49
2022/12/09 09:33:26;;;;;;;56.22;18.85;;;4.20;99.90;;;;;;5051768;28;20220;-47
2022/12/09 09:36:00;;;;;;;111.20;35.22;;;4.30;99.90;;;;;;5051415;28;20575;-46
2022/12/09 09:38:27;;;;;;;48.80;18.05;;;4.20;99.90;;;;;;5051623;28;20175;-47
2022/12/09 09:40:53;;;;;;;20.80;9.90;;;4.20;99.90;;;;;;5051284;28;20309;-47
2022/12/09 09:43:27;;;;;;;13.35;8.75;;;4.20;99.90;;;;;;5051207;28;20206;-46
2022/12/09 09:45:55;;;;;;;18.63;10.05;;;4.10;99.90;;;;;;5051262;28;20239;-46
2022/12/09 09:48:24;;;;;;;15.40;10.07;;;4.00;99.90;;;;;;5051222;28;20175;-47
2022/12/09 09:51:05;;;;;;;16.95;9.50;;;4.00;99.90;;;;;;5051203;28;20250;-48
2022/12/09 09:53:33;;;;;;;15.27;8.48;;;4.10;99.90;;;;;;5051190;28;20174;-46
2022/12/09 09:56:25;;;;;;;13.73;9.52;;;4.20;99.90;;;;;;5053698;28;20633;-45
2022/12/09 09:59:16;;;;;;;12.43;8.30;;;4.30;99.90;;;;;;5053889;28;20179;-46
2022/12/09 10:01:49;;;;;;;25.88;11.13;;;4.30;99.90;;;;;;5054742;28;20222;-46
2022/12/09 10:04:31;;;;;;;21.63;11.27;;;4.30;99.90;;;;;;5054992;28;20232;-51
2022/12/09 10:07:02;;;;;;;14.18;8.48;;;4.20;99.90;;;;;;5055341;28;20167;-46
2022/12/09 10:09:47;;;;;;;41.90;15.10;;;4.30;99.90;;;;;;5055098;28;20220;-46
2022/12/09 10:12:33;;;;;;;27.85;12.73;;;4.20;99.90;;;;;;5054909;28;20570;-49
2022/12/09 10:15:01;;;;;;;25.63;13.60;;;4.20;99.90;;;;;;5054876;28;20540;-45
2022/12/09 10:17:32;;;;;;;13.95;9.02;;;4.20;99.90;;;;;;5055049;28;20622;-45
2022/12/09 10:20:10;;;;;;;16.23;8.90;;;4.20;99.90;;;;;;5055114;28;20320;-46
2022/12/09 10:22:52;;;;;;;16.05;9.35;;;4.20;99.90;;;;;;5054778;28;20202;-46
2022/12/09 10:25:24;;;;;;;16.40;9.30;;;4.20;99.90;;;;;;5054595;28;20169;-45
2022/12/09 10:28:00;;;;;;;48.25;15.13;;;4.20;99.90;;;;;;5054465;28;20213;-50
2022/12/09 10:30:25;;;;;;;44.92;14.18;;;4.40;99.90;;;;;;5054816;28;20166;-48
2022/12/09 10:32:53;;;;;;;15.10;9.63;;;4.30;99.90;;;;;;5054438;28;20233;-48
2022/12/09 10:35:22;;;;;;;14.45;8.82;;;4.20;99.90;;;;;;5054628;28;20167;-45
2022/12/09 10:37:51;;;;;;;12.63;8.68;;;4.20;99.90;;;;;;5054272;28;20178;-45
2022/12/09 10:40:43;;;;;;;20.45;12.40;;;4.30;99.90;;;;;;5054576;28;20193;-45
2022/12/09 10:43:36;;;;;;;23.25;9.98;;;4.30;99.90;;;;;;5054218;28;20206;-46
2022/12/09 10:46:16;;;;;;;19.38;9.60;;;4.40;99.90;;;;;;5054413;28;20175;-46
2022/12/09 10:48:46;;;;;;;16.27;9.48;;;4.50;99.90;;;;;;5054152;28;20162;-49
2022/12/09 10:51:20;;;;;;;20.45;11.13;;;4.50;99.90;;;;;;5054108;28;20201;-46
2022/12/09 10:53:52;;;;;;;17.85;11.05;;;4.50;99.90;;;;;;5053954;28;20692;-45
2022/12/09 10:56:39;;;;;;;15.23;9.65;;;4.50;99.90;;;;;;5054308;28;20536;-47
2022/12/09 10:59:30;;;;;;;17.33;9.90;;;4.50;99.90;;;;;;5053976;28;20250;-46
2022/12/09 11:02:03;;;;;;;17.67;9.90;;;4.60;99.90;;;;;;5053955;28;20252;-45
2022/12/09 11:04:36;;;;;;;13.73;8.98;;;4.60;99.90;;;;;;5053951;28;20523;-45
2022/12/09 11:07:11;;;;;;;14.25;8.45;;;4.60;99.90;;;;;;5053148;28;20269;-48
2022/12/09 11:09:42;;;;;;;19.13;10.20;;;4.50;99.90;;;;;;5053821;28;20166;-46
2022/12/09 11:12:25;;;;;;;30.10;13.27;;;4.60;99.90;;;;;;5053736;28;20224;-48
2022/12/09 11:14:56;;;;;;;12.98;8.70;;;4.60;99.90;;;;;;5053566;28;20642;-46
2022/12/09 11:17:29;;;;;;;12.98;8.82;;;4.70;99.90;;;;;;5053600;28;20167;-45
2022/12/09 11:20:17;;;;;;;17.55;9.55;;;4.60;99.90;;;;;;5054190;28;20245;-45
2022/12/09 11:22:44;;;;;;;18.83;9.05;;;4.60;99.90;;;;;;5053437;28;20241;-45
2022/12/09 11:25:10;;;;;;;156.27;49.90;;;4.60;99.90;;;;;;5053337;28;20216;-49
2022/12/09 11:27:37;;;;;;;22.02;10.32;;;4.70;99.90;;;;;;5053471;28;20183;-50
2022/12/09 11:30:21;;;;;;;12.63;9.20;;;4.70;99.90;;;;;;5053578;28;20551;-46
2022/12/09 11:33:06;;;;;;;15.05;9.35;;;4.80;99.90;;;;;;5053226;28;20220;-48
2022/12/09 11:35:35;;;;;;;15.35;9.73;;;4.80;99.90;;;;;;5053415;28;20167;-45
2022/12/09 11:38:24;;;;;;;15.68;10.07;;;4.80;99.90;;;;;;5053453;28;20641;-45
2022/12/09 11:41:09;;;;;;;15.10;9.48;;;4.90;99.90;;;;;;5053171;28;20201;-45
2022/12/09 11:43:55;;;;;;;11.55;8.85;;;4.80;99.90;;;;;;5049149;28;20233;-45
2022/12/09 11:46:24;;;;;;;15.02;9.73;;;4.80;99.90;;;;;;5052999;28;20167;-45
2022/12/09 11:48:53;;;;;;;18.00;10.18;;;4.90;99.90;;;;;;5051659;28;20526;-45
2022/12/09 11:51:28;;;;;;;13.48;9.95;;;5.00;99.90;;;;;;5053050;28;20634;-45
2022/12/09 11:54:01;;;;;;;14.65;10.05;;;5.00;99.90;;;;;;5053461;28;20177;-46
2022/12/09 11:56:28;;;;;;;15.77;9.80;;;5.00;99.90;;;;;;5053457;28;20176;-49
2022/12/09 11:59:02;;;;;;;19.83;10.50;;;5.10;99.90;;;;;;5053149;28;20241;-45
2022/12/09 12:01:49;;;;;;;19.85;11.27;;;5.10;99.90;;;;;;5052932;28;20218;-46
2022/12/09 12:04:21;;;;;;;19.30;11.15;;;4.90;99.90;;;;;;5052647;28;20178;-49
2022/12/09 12:06:55;;;;;;;14.68;9.95;;;4.80;99.90;;;;;;5052634;28;20170;-46
2022/12/09 12:09:36;;;;;;;14.70;10.75;;;4.80;99.90;;;;;;5052883;28;20174;-46
2022/12/09 12:12:05;;;;;;;20.40;11.18;;;4.80;99.90;;;;;;5052753;28;20500;-48
2022/12/09 12:14:34;;;;;;;18.15;11.57;;;4.80;99.90;;;;;;5052509;28;20162;-47
2022/12/09 12:17:23;;;;;;;16.92;10.95;;;4.90;99.90;;;;;;5052438;28;20212;-46
2022/12/09 12:19:51;;;;;;;20.90;11.02;;;4.90;99.90;;;;;;5051485;28;20163;-47
2022/12/09 12:22:38;;;;;;;17.88;10.38;;;4.90;99.90;;;;;;5052518;28;20218;-46
2022/12/09 12:25:36;;;;;;;18.50;10.75;;;4.70;99.90;;;;;;5052321;28;20642;-49
2022/12/09 12:28:11;;;;;;;17.83;10.15;;;4.80;99.90;;;;;;5052264;28;20182;-45
2022/12/09 12:31:01;;;;;;;19.02;10.82;;;4.90;99.90;;;;;;5050938;28;20642;-47
2022/12/09 12:33:30;;;;;;;19.02;10.40;;;4.80;99.90;;;;;;5052701;28;20240;-45
2022/12/09 12:36:17;;;;;;;18.88;11.77;;;4.70;99.90;;;;;;5052457;28;20162;-47
2022/12/09 12:39:01;;;;;;;19.83;11.18;;;4.60;99.90;;;;;;5052133;28;20254;-45
2022/12/09 12:41:49;;;;;;;21.45;12.65;;;4.50;99.90;;;;;;5052462;28;20167;-45
2022/12/09 12:47:45;;;;;;;22.60;12.20;;;4.60;99.90;;;;;;5045509;28;20186;-45
2022/12/09 12:50:29;;;;;;;22.33;12.73;;;4.60;99.90;;;;;;5051818;28;20622;-45
2022/12/09 12:53:34;;;;;;;22.05;12.50;;;4.70;99.90;;;;;;5052260;28;20248;-47
2022/12/09 12:56:08;;;;;;;20.65;12.60;;;4.60;99.90;;;;;;5052035;28;20510;-48
2022/12/09 12:59:05;;;;;;;20.50;12.32;;;4.70;99.90;;;;;;5051826;28;20206;-49
2022/12/09 13:01:38;;;;;;;17.75;10.82;;;4.60;99.90;;;;;;5051539;28;20562;-47